sensor_id;sensor_type;location;lat;lon;timestamp;pressure;altitude;pressure_sealevel;temperature;humidity
53651;BME280;39552;45.776;15.892;2023-02-03T00:02:13;101396.06;;;5.85;100.00
53651;BME280;39552;45.776;15.892;2023-02-03T00:04:40;101390.75;;;5.82;100.00
53651;BME280;39552;45.776;15.892;2023-02-03T00:07:08;101379.16;;;5.80;100.00
53651;BME280;39552;45.776;15.892;2023-02-03T00:09:36;101400.66;;;5.79;100.00
53651;BME280;39552;45.776;15.892;2023-02-03T00:12:03;101397.06;;;5.80;100.00
53651;BME280;39552;45.776;15.892;2023-02-03T00:14:32;101390.75;;;5.82;100.00
53651;BME280;39552;45.776;15.892;2023-02-03T00:16:59;101401.19;;;5.95;100.00
53651;BME280;39552;45.776;15.892;2023-02-03T00:19:25;101398.53;;;5.96;100.00
53651;BME280;39552;45.776;15.892;2023-02-03T00:21:52;101401.66;;;6.17;100.00
53651;BME280;39552;45.776;15.892;2023-02-03T00:24:19;101409.63;;;6.20;100.00
53651;BME280;39552;45.776;15.892;2023-02-03T00:26:45;101394.59;;;6.13;100.00
53651;BME280;39552;45.776;15.892;2023-02-03T00:29:12;101389.28;;;6.09;100.00
53651;BME280;39552;45.776;15.892;2023-02-03T00:31:40;101394.47;;;6.17;100.00
53651;BME280;39552;45.776;15.892;2023-02-03T00:34:07;101404.16;;;6.24;100.00
53651;BME280;39552;45.776;15.892;2023-02-03T00:36:35;101399.16;;;6.09;100.00
53651;BME280;39552;45.776;15.892;2023-02-03T00:39:01;101402.56;;;6.16;100.00
53651;BME280;39552;45.776;15.892;2023-02-03T00:41:29;101411.28;;;6.25;100.00
53651;BME280;39552;45.776;15.892;2023-02-03T00:43:56;101418.41;;;6.28;100.00
53651;BME280;39552;45.776;15.892;2023-02-03T00:46:23;101423.16;;;6.17;100.00
53651;BME280;39552;45.776;15.892;2023-02-03T00:48:52;101428.69;;;6.09;100.00
53651;BME280;39552;45.776;15.892;2023-02-03T00:51:19;101417.16;;;6.04;100.00
53651;BME280;39552;45.776;15.892;2023-02-03T00:53:46;101425.34;;;5.99;100.00
53651;BME280;39552;45.776;15.892;2023-02-03T00:56:13;101437.63;;;6.09;100.00
53651;BME280;39552;45.776;15.892;2023-02-03T00:58:41;101419.81;;;6.05;100.00
53651;BME280;39552;45.776;15.892;2023-02-03T01:01:08;101414.88;;;5.84;100.00
53651;BME280;39552;45.776;15.892;2023-02-03T01:03:35;101429.34;;;5.77;100.00
53651;BME280;39552;45.776;15.892;2023-02-03T01:06:12;101433.66;;;5.85;100.00
53651;BME280;39552;45.776;15.892;2023-02-03T01:08:39;101423.84;;;5.83;100.00
53651;BME280;39552;45.776;15.892;2023-02-03T01:11:07;101443.72;;;5.76;100.00
53651;BME280;39552;45.776;15.892;2023-02-03T01:13:34;101429.63;;;5.64;100.00
53651;BME280;39552;45.776;15.892;2023-02-03T01:16:00;101437.91;;;5.52;100.00
53651;BME280;39552;45.776;15.892;2023-02-03T01:18:27;101445.38;;;5.35;100.00
53651;BME280;39552;45.776;15.892;2023-02-03T01:20:54;101457.88;;;5.37;100.00
53651;BME280;39552;45.776;15.892;2023-02-03T01:23:22;101443.78;;;5.26;100.00
53651;BME280;39552;45.776;15.892;2023-02-03T01:25:49;101451.59;;;5.38;100.00
53651;BME280;39552;45.776;15.892;2023-02-03T01:28:16;101438.56;;;5.18;100.00
53651;BME280;39552;45.776;15.892;2023-02-03T01:30:42;101450.94;;;5.25;100.00
53651;BME280;39552;45.776;15.892;2023-02-03T01:33:09;101450.44;;;5.02;100.00
53651;BME280;39552;45.776;15.892;2023-02-03T01:35:36;101442.47;;;4.99;100.00
53651;BME280;39552;45.776;15.892;2023-02-03T01:38:03;101457.75;;;4.93;100.00
53651;BME280;39552;45.776;15.892;2023-02-03T01:40:31;101454.19;;;4.93;100.00
53651;BME280;39552;45.776;15.892;2023-02-03T01:42:58;101432.91;;;4.82;100.00
53651;BME280;39552;45.776;15.892;2023-02-03T01:45:24;101419.66;;;4.73;100.00
53651;BME280;39552;45.776;15.892;2023-02-03T01:47:53;101421.47;;;4.71;100.00
53651;BME280;39552;45.776;15.892;2023-02-03T01:50:23;101417.03;;;4.70;100.00
53651;BME280;39552;45.776;15.892;2023-02-03T01:52:53;101447.97;;;4.92;100.00
53651;BME280;39552;45.776;15.892;2023-02-03T01:55:26;101435.41;;;4.93;100.00
53651;BME280;39552;45.776;15.892;2023-02-03T01:57:58;101454.22;;;4.90;100.00
53651;BME280;39552;45.776;15.892;2023-02-03T02:00:27;101442.78;;;4.80;100.00
53651;BME280;39552;45.776;15.892;2023-02-03T02:02:57;101451.06;;;4.65;100.00
53651;BME280;39552;45.776;15.892;2023-02-03T02:05:28;101454.81;;;4.53;100.00
53651;BME280;39552;45.776;15.892;2023-02-03T02:07:58;101460.91;;;4.66;100.00
53651;BME280;39552;45.776;15.892;2023-02-03T02:10:27;101460.69;;;4.78;100.00
53651;BME280;39552;45.776;15.892;2023-02-03T02:12:59;101446.19;;;4.90;100.00
53651;BME280;39552;45.776;15.892;2023-02-03T02:15:32;101451.78;;;4.76;100.00
53651;BME280;39552;45.776;15.892;2023-02-03T02:18:19;101452.13;;;4.55;100.00
53651;BME280;39552;45.776;15.892;2023-02-03T02:21:21;101464.53;;;4.62;100.00
53651;BME280;39552;45.776;15.892;2023-02-03T02:24:17;101433.13;;;4.70;100.00
53651;BME280;39552;45.776;15.892;2023-02-03T02:26:55;101421.59;;;4.63;100.00
53651;BME280;39552;45.776;15.892;2023-02-03T02:32:47;101428.03;;;4.51;100.00
53651;BME280;39552;45.776;15.892;2023-02-03T02:35:22;101432.16;;;4.76;100.00
53651;BME280;39552;45.776;15.892;2023-02-03T02:37:57;101406.94;;;4.31;100.00
53651;BME280;39552;45.776;15.892;2023-02-03T02:40:31;101417.59;;;4.34;100.00
53651;BME280;39552;45.776;15.892;2023-02-03T02:43:03;101425.59;;;4.36;100.00
53651;BME280;39552;45.776;15.892;2023-02-03T02:45:40;101430.09;;;4.34;100.00
53651;BME280;39552;45.776;15.892;2023-02-03T02:48:26;101433.81;;;4.27;100.00
53651;BME280;39552;45.776;15.892;2023-02-03T02:50:56;101441.41;;;4.56;100.00
53651;BME280;39552;45.776;15.892;2023-02-03T02:53:25;101438.72;;;4.56;100.00
53651;BME280;39552;45.776;15.892;2023-02-03T02:55:54;101432.25;;;4.69;100.00
53651;BME280;39552;45.776;15.892;2023-02-03T02:58:23;101439.84;;;4.96;100.00
53651;BME280;39552;45.776;15.892;2023-02-03T03:00:52;101448.53;;;5.10;100.00
53651;BME280;39552;45.776;15.892;2023-02-03T03:03:21;101450.78;;;4.83;100.00
53651;BME280;39552;45.776;15.892;2023-02-03T03:05:53;101452.16;;;4.51;100.00
53651;BME280;39552;45.776;15.892;2023-02-03T03:08:28;101462.78;;;4.58;100.00
53651;BME280;39552;45.776;15.892;2023-02-03T03:10:57;101459.53;;;4.37;100.00
53651;BME280;39552;45.776;15.892;2023-02-03T03:13:30;101449.34;;;4.61;100.00
53651;BME280;39552;45.776;15.892;2023-02-03T03:15:58;101475.81;;;4.82;100.00
53651;BME280;39552;45.776;15.892;2023-02-03T03:18:30;101479.16;;;4.97;100.00
53651;BME280;39552;45.776;15.892;2023-02-03T03:21:03;101489.22;;;4.81;100.00
53651;BME280;39552;45.776;15.892;2023-02-03T03:23:33;101471.44;;;4.75;100.00
53651;BME280;39552;45.776;15.892;2023-02-03T03:26:08;101468.75;;;4.75;100.00
53651;BME280;39552;45.776;15.892;2023-02-03T03:28:43;101471.19;;;4.90;100.00
53651;BME280;39552;45.776;15.892;2023-02-03T03:31:12;101471.31;;;4.83;100.00
53651;BME280;39552;45.776;15.892;2023-02-03T03:33:39;101471.44;;;4.75;100.00
53651;BME280;39552;45.776;15.892;2023-02-03T03:36:15;101462.00;;;4.52;100.00
53651;BME280;39552;45.776;15.892;2023-02-03T03:38:49;101459.97;;;4.65;100.00
53651;BME280;39552;45.776;15.892;2023-02-03T03:41:25;101471.53;;;4.70;100.00
53651;BME280;39552;45.776;15.892;2023-02-03T03:43:56;101480.19;;;4.88;100.00
53651;BME280;39552;45.776;15.892;2023-02-03T03:46:26;101469.25;;;5.00;100.00
53651;BME280;39552;45.776;15.892;2023-02-03T03:48:55;101462.03;;;5.04;100.00
53651;BME280;39552;45.776;15.892;2023-02-03T03:54:19;101466.00;;;4.81;100.00
53651;BME280;39552;45.776;15.892;2023-02-03T03:56:50;101471.31;;;4.84;100.00
53651;BME280;39552;45.776;15.892;2023-02-03T03:59:21;101461.78;;;4.65;100.00
53651;BME280;39552;45.776;15.892;2023-02-03T04:01:50;101483.31;;;4.62;100.00
53651;BME280;39552;45.776;15.892;2023-02-03T04:04:18;101478.81;;;4.62;100.00
53651;BME280;39552;45.776;15.892;2023-02-03T04:06:47;101489.44;;;4.68;100.00
53651;BME280;39552;45.776;15.892;2023-02-03T04:09:14;101484.41;;;4.47;100.00
53651;BME280;39552;45.776;15.892;2023-02-03T04:11:41;101486.28;;;4.40;100.00
53651;BME280;39552;45.776;15.892;2023-02-03T04:14:08;101479.78;;;4.57;100.00
53651;BME280;39552;45.776;15.892;2023-02-03T04:16:34;101491.41;;;4.56;100.00
53651;BME280;39552;45.776;15.892;2023-02-03T04:19:01;101485.16;;;4.55;100.00
53651;BME280;39552;45.776;15.892;2023-02-03T04:21:28;101487.31;;;4.31;100.00
53651;BME280;39552;45.776;15.892;2023-02-03T04:23:56;101497.84;;;4.42;100.00
53651;BME280;39552;45.776;15.892;2023-02-03T04:26:23;101483.34;;;4.57;100.00
53651;BME280;39552;45.776;15.892;2023-02-03T04:29:03;101487.41;;;4.25;100.00
53651;BME280;39552;45.776;15.892;2023-02-03T04:31:30;101464.56;;;4.60;100.00
53651;BME280;39552;45.776;15.892;2023-02-03T04:33:57;101486.25;;;4.43;100.00
53651;BME280;39552;45.776;15.892;2023-02-03T04:36:24;101480.22;;;4.27;100.00
53651;BME280;39552;45.776;15.892;2023-02-03T04:38:51;101468.47;;;4.36;100.00
53651;BME280;39552;45.776;15.892;2023-02-03T04:41:19;101478.44;;;4.25;100.00
53651;BME280;39552;45.776;15.892;2023-02-03T04:43:46;101478.50;;;4.22;100.00
53651;BME280;39552;45.776;15.892;2023-02-03T04:46:13;101469.59;;;4.21;100.00
53651;BME280;39552;45.776;15.892;2023-02-03T04:48:39;101467.81;;;4.19;100.00
53651;BME280;39552;45.776;15.892;2023-02-03T04:51:07;101450.75;;;4.27;100.00
53651;BME280;39552;45.776;15.892;2023-02-03T04:53:34;101451.94;;;4.06;100.00
53651;BME280;39552;45.776;15.892;2023-02-03T04:56:02;101457.03;;;4.25;100.00
53651;BME280;39552;45.776;15.892;2023-02-03T04:58:35;101439.22;;;4.22;100.00
53651;BME280;39552;45.776;15.892;2023-02-03T05:01:06;101448.06;;;4.29;100.00
53651;BME280;39552;45.776;15.892;2023-02-03T05:03:33;101443.72;;;4.20;100.00
53651;BME280;39552;45.776;15.892;2023-02-03T05:06:00;101448.84;;;4.34;100.00
53651;BME280;39552;45.776;15.892;2023-02-03T05:08:27;101444.25;;;4.42;100.00
53651;BME280;39552;45.776;15.892;2023-02-03T05:10:54;101458.63;;;4.38;100.00
53651;BME280;39552;45.776;15.892;2023-02-03T05:13:21;101447.63;;;4.58;100.00
53651;BME280;39552;45.776;15.892;2023-02-03T05:15:49;101421.81;;;4.51;100.00
53651;BME280;39552;45.776;15.892;2023-02-03T05:18:15;101453.72;;;4.68;100.00
53651;BME280;39552;45.776;15.892;2023-02-03T05:20:42;101449.97;;;4.77;100.00
53651;BME280;39552;45.776;15.892;2023-02-03T05:23:09;101428.97;;;4.52;100.00
53651;BME280;39552;45.776;15.892;2023-02-03T05:25:36;101430.00;;;4.40;100.00
53651;BME280;39552;45.776;15.892;2023-02-03T05:28:03;101425.00;;;4.17;100.00
53651;BME280;39552;45.776;15.892;2023-02-03T05:30:30;101429.59;;;4.07;100.00
53651;BME280;39552;45.776;15.892;2023-02-03T05:32:58;101435.13;;;3.95;100.00
53651;BME280;39552;45.776;15.892;2023-02-03T05:35:25;101453.00;;;3.91;100.00
53651;BME280;39552;45.776;15.892;2023-02-03T05:37:51;101446.81;;;3.88;100.00
53651;BME280;39552;45.776;15.892;2023-02-03T05:40:32;101436.97;;;3.90;100.00
53651;BME280;39552;45.776;15.892;2023-02-03T05:42:59;101440.44;;;3.98;100.00
53651;BME280;39552;45.776;15.892;2023-02-03T05:45:25;101432.66;;;3.77;100.00
53651;BME280;39552;45.776;15.892;2023-02-03T05:47:52;101440.59;;;3.86;100.00
53651;BME280;39552;45.776;15.892;2023-02-03T05:50:20;101431.88;;;3.70;100.00
53651;BME280;39552;45.776;15.892;2023-02-03T05:52:47;101419.44;;;3.67;100.00
53651;BME280;39552;45.776;15.892;2023-02-03T05:55:14;101416.66;;;3.73;100.00
53651;BME280;39552;45.776;15.892;2023-02-03T05:57:41;101403.28;;;3.75;100.00
53651;BME280;39552;45.776;15.892;2023-02-03T06:00:10;101404.72;;;3.99;100.00
53651;BME280;39552;45.776;15.892;2023-02-03T06:02:37;101414.66;;;3.92;100.00
53651;BME280;39552;45.776;15.892;2023-02-03T06:05:04;101412.97;;;3.82;100.00
53651;BME280;39552;45.776;15.892;2023-02-03T06:07:32;101398.31;;;3.43;100.00
53651;BME280;39552;45.776;15.892;2023-02-03T06:09:59;101408.91;;;3.53;100.00
53651;BME280;39552;45.776;15.892;2023-02-03T06:12:26;101413.41;;;3.50;100.00
53651;BME280;39552;45.776;15.892;2023-02-03T06:14:54;101416.88;;;3.57;100.00
53651;BME280;39552;45.776;15.892;2023-02-03T06:17:27;101392.69;;;3.66;100.00
53651;BME280;39552;45.776;15.892;2023-02-03T06:19:54;101409.50;;;3.77;100.00
53651;BME280;39552;45.776;15.892;2023-02-03T06:22:20;101395.38;;;3.63;100.00
53651;BME280;39552;45.776;15.892;2023-02-03T06:24:48;101398.91;;;3.66;100.00
53651;BME280;39552;45.776;15.892;2023-02-03T06:27:15;101421.00;;;3.82;100.00
53651;BME280;39552;45.776;15.892;2023-02-03T06:29:42;101411.22;;;3.80;100.00
53651;BME280;39552;45.776;15.892;2023-02-03T06:32:09;101388.28;;;3.62;100.00
53651;BME280;39552;45.776;15.892;2023-02-03T06:34:35;101405.22;;;3.62;100.00
53651;BME280;39552;45.776;15.892;2023-02-03T06:37:02;101406.06;;;3.67;100.00
53651;BME280;39552;45.776;15.892;2023-02-03T06:39:29;101397.09;;;3.68;100.00
53651;BME280;39552;45.776;15.892;2023-02-03T06:41:57;101403.97;;;3.88;100.00
53651;BME280;39552;45.776;15.892;2023-02-03T06:44:24;101387.22;;;3.73;100.00
53651;BME280;39552;45.776;15.892;2023-02-03T06:46:51;101398.03;;;3.67;100.00
53651;BME280;39552;45.776;15.892;2023-02-03T06:49:17;101387.34;;;3.63;100.00
53651;BME280;39552;45.776;15.892;2023-02-03T06:51:45;101372.00;;;3.79;100.00
53651;BME280;39552;45.776;15.892;2023-02-03T06:54:12;101386.31;;;3.74;100.00
53651;BME280;39552;45.776;15.892;2023-02-03T06:56:39;101384.28;;;3.92;100.00
53651;BME280;39552;45.776;15.892;2023-02-03T06:59:07;101375.56;;;3.78;100.00
53651;BME280;39552;45.776;15.892;2023-02-03T07:01:34;101381.59;;;3.93;100.00
53651;BME280;39552;45.776;15.892;2023-02-03T07:04:01;101383.94;;;4.17;100.00
53651;BME280;39552;45.776;15.892;2023-02-03T07:06:29;101389.34;;;4.13;100.00
53651;BME280;39552;45.776;15.892;2023-02-03T07:08:56;101383.72;;;3.68;100.00
53651;BME280;39552;45.776;15.892;2023-02-03T07:11:26;101377.47;;;3.69;100.00
53651;BME280;39552;45.776;15.892;2023-02-03T07:13:53;101372.69;;;3.91;100.00
53651;BME280;39552;45.776;15.892;2023-02-03T07:16:21;101376.09;;;4.04;100.00
53651;BME280;39552;45.776;15.892;2023-02-03T07:18:48;101374.06;;;4.20;100.00
53651;BME280;39552;45.776;15.892;2023-02-03T07:21:15;101363.56;;;4.06;100.00
53651;BME280;39552;45.776;15.892;2023-02-03T07:23:42;101355.53;;;4.06;100.00
53651;BME280;39552;45.776;15.892;2023-02-03T07:26:09;101376.41;;;4.40;100.00
53651;BME280;39552;45.776;15.892;2023-02-03T07:28:36;101377.22;;;4.47;100.00
53651;BME280;39552;45.776;15.892;2023-02-03T07:31:03;101358.34;;;4.53;100.00
53651;BME280;39552;45.776;15.892;2023-02-03T07:33:32;101360.41;;;4.39;100.00
53651;BME280;39552;45.776;15.892;2023-02-03T07:35:59;101359.44;;;4.41;100.00
53651;BME280;39552;45.776;15.892;2023-02-03T07:38:27;101373.34;;;4.63;100.00
53651;BME280;39552;45.776;15.892;2023-02-03T07:40:54;101370.50;;;4.74;100.00
53651;BME280;39552;45.776;15.892;2023-02-03T07:43:21;101374.91;;;4.78;100.00
53651;BME280;39552;45.776;15.892;2023-02-03T07:45:48;101367.22;;;4.58;100.00
53651;BME280;39552;45.776;15.892;2023-02-03T07:48:15;101361.66;;;4.69;100.00
53651;BME280;39552;45.776;15.892;2023-02-03T07:50:43;101375.00;;;4.72;100.00
53651;BME280;39552;45.776;15.892;2023-02-03T07:53:10;101373.31;;;4.68;100.00
53651;BME280;39552;45.776;15.892;2023-02-03T07:55:38;101374.94;;;4.75;100.00
53651;BME280;39552;45.776;15.892;2023-02-03T07:58:06;101384.59;;;4.87;100.00
53651;BME280;39552;45.776;15.892;2023-02-03T08:00:43;101375.34;;;5.03;100.00
53651;BME280;39552;45.776;15.892;2023-02-03T08:03:10;101384.91;;;5.17;100.00
53651;BME280;39552;45.776;15.892;2023-02-03T08:05:37;101363.78;;;5.00;100.00
53651;BME280;39552;45.776;15.892;2023-02-03T08:08:05;101365.47;;;5.05;100.00
53651;BME280;39552;45.776;15.892;2023-02-03T08:10:32;101369.69;;;5.17;100.00
53651;BME280;39552;45.776;15.892;2023-02-03T08:12:59;101392.81;;;5.24;100.00
53651;BME280;39552;45.776;15.892;2023-02-03T08:15:25;101362.03;;;5.44;100.00
53651;BME280;39552;45.776;15.892;2023-02-03T08:17:52;101357.47;;;5.47;100.00
53651;BME280;39552;45.776;15.892;2023-02-03T08:20:19;101339.50;;;5.53;100.00
53651;BME280;39552;45.776;15.892;2023-02-03T08:22:46;101323.56;;;5.45;100.00
53651;BME280;39552;45.776;15.892;2023-02-03T08:25:14;101314.66;;;5.43;100.00
53651;BME280;39552;45.776;15.892;2023-02-03T08:27:41;101307.97;;;5.62;100.00
53651;BME280;39552;45.776;15.892;2023-02-03T08:30:11;101332.13;;;5.62;100.00
53651;BME280;39552;45.776;15.892;2023-02-03T08:32:38;101327.47;;;5.70;100.00
53651;BME280;39552;45.776;15.892;2023-02-03T08:35:05;101322.16;;;5.66;100.00
53651;BME280;39552;45.776;15.892;2023-02-03T08:37:32;101336.34;;;5.74;100.00
53651;BME280;39552;45.776;15.892;2023-02-03T08:39:59;101331.03;;;5.69;100.00
53651;BME280;39552;45.776;15.892;2023-02-03T08:42:27;101337.75;;;5.48;100.00
53651;BME280;39552;45.776;15.892;2023-02-03T08:44:54;101337.59;;;5.56;100.00
53651;BME280;39552;45.776;15.892;2023-02-03T08:47:21;101329.28;;;5.68;100.00
53651;BME280;39552;45.776;15.892;2023-02-03T08:49:48;101322.94;;;5.72;100.00
53651;BME280;39552;45.776;15.892;2023-02-03T08:52:15;101316.91;;;6.02;100.00
53651;BME280;39552;45.776;15.892;2023-02-03T08:54:44;101322.06;;;6.11;100.00
53651;BME280;39552;45.776;15.892;2023-02-03T08:57:11;101309.69;;;6.05;100.00
53651;BME280;39552;45.776;15.892;2023-02-03T08:59:41;101317.94;;;5.95;100.00
53651;BME280;39552;45.776;15.892;2023-02-03T09:02:13;101323.97;;;6.06;100.00
53651;BME280;39552;45.776;15.892;2023-02-03T09:04:41;101314.06;;;6.09;100.00
53651;BME280;39552;45.776;15.892;2023-02-03T09:07:07;101304.47;;;5.99;100.00
53651;BME280;39552;45.776;15.892;2023-02-03T09:09:34;101306.75;;;6.16;100.00
53651;BME280;39552;45.776;15.892;2023-02-03T09:12:01;101321.06;;;6.17;100.00
53651;BME280;39552;45.776;15.892;2023-02-03T09:14:28;101321.81;;;6.22;100.00
53651;BME280;39552;45.776;15.892;2023-02-03T09:16:56;101329.16;;;6.14;100.00
53651;BME280;39552;45.776;15.892;2023-02-03T09:19:23;101337.03;;;6.23;100.00
53651;BME280;39552;45.776;15.892;2023-02-03T09:21:50;101326.66;;;6.43;100.00
53651;BME280;39552;45.776;15.892;2023-02-03T09:24:17;101323.00;;;6.46;100.00
53651;BME280;39552;45.776;15.892;2023-02-03T09:26:44;101336.97;;;6.60;100.00
53651;BME280;39552;45.776;15.892;2023-02-03T09:29:11;101317.44;;;6.54;100.00
53651;BME280;39552;45.776;15.892;2023-02-03T09:31:38;101323.41;;;6.65;100.00
53651;BME280;39552;45.776;15.892;2023-02-03T09:34:06;101320.53;;;6.73;100.00
53651;BME280;39552;45.776;15.892;2023-02-03T09:36:33;101322.84;;;6.86;100.00
53651;BME280;39552;45.776;15.892;2023-02-03T09:39:00;101302.94;;;6.94;100.00
53651;BME280;39552;45.776;15.892;2023-02-03T09:41:39;101305.22;;;7.07;100.00
53651;BME280;39552;45.776;15.892;2023-02-03T09:44:13;101292.47;;;7.14;100.00
53651;BME280;39552;45.776;15.892;2023-02-03T09:46:45;101293.16;;;7.22;100.00
53651;BME280;39552;45.776;15.892;2023-02-03T09:49:18;101270.03;;;7.15;100.00
53651;BME280;39552;45.776;15.892;2023-02-03T09:51:57;101284.91;;;7.28;100.00
53651;BME280;39552;45.776;15.892;2023-02-03T09:54:34;101278.22;;;7.42;100.00
53651;BME280;39552;45.776;15.892;2023-02-03T09:57:05;101271.94;;;7.41;100.00
53651;BME280;39552;45.776;15.892;2023-02-03T09:59:36;101268.56;;;7.35;100.00
53651;BME280;39552;45.776;15.892;2023-02-03T10:02:17;101282.63;;;7.44;100.00
53651;BME280;39552;45.776;15.892;2023-02-03T10:04:55;101260.75;;;7.25;100.00
53651;BME280;39552;45.776;15.892;2023-02-03T10:07:30;101269.44;;;7.35;100.00
53651;BME280;39552;45.776;15.892;2023-02-03T10:10:02;101247.69;;;7.41;100.00
53651;BME280;39552;45.776;15.892;2023-02-03T10:12:46;101237.69;;;7.46;100.00
53651;BME280;39552;45.776;15.892;2023-02-03T10:18:18;101232.94;;;7.55;100.00
53651;BME280;39552;45.776;15.892;2023-02-03T10:20:50;101236.09;;;7.69;100.00
53651;BME280;39552;45.776;15.892;2023-02-03T10:23:25;101214.28;;;7.77;100.00
53651;BME280;39552;45.776;15.892;2023-02-03T10:25:54;101213.88;;;7.89;100.00
53651;BME280;39552;45.776;15.892;2023-02-03T10:28:26;101216.66;;;7.86;100.00
53651;BME280;39552;45.776;15.892;2023-02-03T10:30:55;101219.84;;;7.99;100.00
53651;BME280;39552;45.776;15.892;2023-02-03T10:33:25;101197.94;;;8.10;100.00
53651;BME280;39552;45.776;15.892;2023-02-03T10:35:54;101211.53;;;8.32;100.00
53651;BME280;39552;45.776;15.892;2023-02-03T10:38:30;101212.31;;;8.35;100.00
53651;BME280;39552;45.776;15.892;2023-02-03T10:40:59;101194.78;;;8.22;100.00
53651;BME280;39552;45.776;15.892;2023-02-03T10:43:28;101184.25;;;8.41;100.00
53651;BME280;39552;45.776;15.892;2023-02-03T10:45:57;101176.56;;;8.55;100.00
53651;BME280;39552;45.776;15.892;2023-02-03T10:48:24;101149.22;;;8.66;100.00
53651;BME280;39552;45.776;15.892;2023-02-03T10:50:51;101166.34;;;8.89;100.00
53651;BME280;39552;45.776;15.892;2023-02-03T10:53:32;101156.19;;;8.95;100.00
53651;BME280;39552;45.776;15.892;2023-02-03T10:56:02;101162.06;;;9.07;100.00
53651;BME280;39552;45.776;15.892;2023-02-03T10:58:31;101158.69;;;9.00;100.00
53651;BME280;39552;45.776;15.892;2023-02-03T11:01:05;101150.91;;;9.16;100.00
53651;BME280;39552;45.776;15.892;2023-02-03T11:03:34;101143.22;;;9.05;100.00
53651;BME280;39552;45.776;15.892;2023-02-03T11:06:08;101136.66;;;9.12;100.00
53651;BME280;39552;45.776;15.892;2023-02-03T11:08:38;101130.72;;;9.02;100.00
53651;BME280;39552;45.776;15.892;2023-02-03T11:11:07;101137.84;;;9.27;100.00
53651;BME280;39552;45.776;15.892;2023-02-03T11:13:34;101121.00;;;8.98;100.00
53651;BME280;39552;45.776;15.892;2023-02-03T11:16:04;101112.72;;;9.03;100.00
53651;BME280;39552;45.776;15.892;2023-02-03T11:18:41;101098.06;;;8.87;100.00
53651;BME280;39552;45.776;15.892;2023-02-03T11:21:12;101109.25;;;8.99;100.00
53651;BME280;39552;45.776;15.892;2023-02-03T11:23:48;101102.47;;;9.11;100.00
53651;BME280;39552;45.776;15.892;2023-02-03T11:26:19;101078.56;;;9.24;100.00
53651;BME280;39552;45.776;15.892;2023-02-03T11:28:49;101064.75;;;9.32;100.00
53651;BME280;39552;45.776;15.892;2023-02-03T11:31:21;101074.97;;;9.45;100.00
53651;BME280;39552;45.776;15.892;2023-02-03T11:33:52;101076.94;;;9.42;100.00
53651;BME280;39552;45.776;15.892;2023-02-03T11:36:20;101084.59;;;9.31;100.00
53651;BME280;39552;45.776;15.892;2023-02-03T11:38:48;101075.72;;;9.27;100.00
53651;BME280;39552;45.776;15.892;2023-02-03T11:41:22;101059.84;;;9.41;100.00
53651;BME280;39552;45.776;15.892;2023-02-03T11:43:54;101055.88;;;9.50;100.00
53651;BME280;39552;45.776;15.892;2023-02-03T11:46:21;101061.03;;;9.56;100.00
53651;BME280;39552;45.776;15.892;2023-02-03T11:48:59;101050.78;;;9.64;100.00
53651;BME280;39552;45.776;15.892;2023-02-03T11:51:36;101050.13;;;9.58;98.83
53651;BME280;39552;45.776;15.892;2023-02-03T11:54:23;101047.81;;;9.91;100.00
53651;BME280;39552;45.776;15.892;2023-02-03T11:57:07;101030.22;;;9.81;100.00
53651;BME280;39552;45.776;15.892;2023-02-03T11:59:50;101028.91;;;9.91;100.00
53651;BME280;39552;45.776;15.892;2023-02-03T12:02:40;101018.91;;;9.93;99.96
53651;BME280;39552;45.776;15.892;2023-02-03T12:05:30;101018.63;;;9.99;98.79
53651;BME280;39552;45.776;15.892;2023-02-03T12:08:09;101012.91;;;10.06;97.93
53651;BME280;39552;45.776;15.892;2023-02-03T12:10:53;101012.50;;;10.15;98.44
53651;BME280;39552;45.776;15.892;2023-02-03T12:13:33;101001.59;;;10.37;98.44
53651;BME280;39552;45.776;15.892;2023-02-03T12:16:23;100994.78;;;10.28;97.31
53651;BME280;39552;45.776;15.892;2023-02-03T12:19:00;100977.06;;;10.41;98.31
53651;BME280;39552;45.776;15.892;2023-02-03T12:21:42;100965.97;;;10.27;96.33
53651;BME280;39552;45.776;15.892;2023-02-03T12:24:17;100957.22;;;10.22;95.19
53651;BME280;39552;45.776;15.892;2023-02-03T12:26:59;100953.47;;;10.24;92.13
53651;BME280;39552;45.776;15.892;2023-02-03T12:29:31;100949.09;;;10.41;95.50
53651;BME280;39552;45.776;15.892;2023-02-03T12:32:05;100934.31;;;10.29;95.62
53651;BME280;39552;45.776;15.892;2023-02-03T12:34:37;100936.78;;;10.35;93.87
53651;BME280;39552;45.776;15.892;2023-02-03T12:37:09;100925.88;;;10.37;95.60
53651;BME280;39552;45.776;15.892;2023-02-03T12:39:41;100929.25;;;10.42;97.41
53651;BME280;39552;45.776;15.892;2023-02-03T12:42:16;100917.38;;;10.45;94.85
53651;BME280;39552;45.776;15.892;2023-02-03T12:44:47;100910.00;;;10.48;96.17
53651;BME280;39552;45.776;15.892;2023-02-03T12:47:21;100899.25;;;10.47;97.28
53651;BME280;39552;45.776;15.892;2023-02-03T12:49:54;100905.75;;;10.61;94.52
53651;BME280;39552;45.776;15.892;2023-02-03T12:52:26;100881.69;;;10.55;93.75
53651;BME280;39552;45.776;15.892;2023-02-03T12:55:00;100876.78;;;10.63;94.43
53651;BME280;39552;45.776;15.892;2023-02-03T12:57:34;100860.91;;;10.56;92.07
53651;BME280;39552;45.776;15.892;2023-02-03T13:00:12;100849.78;;;10.62;91.18
53651;BME280;39552;45.776;15.892;2023-02-03T13:02:43;100852.72;;;10.57;91.04
53651;BME280;39552;45.776;15.892;2023-02-03T13:05:20;100835.03;;;10.50;90.58